Time;durP1;ratioP1;P1;durP2;ratioP2;P2;SDS_P1;SDS_P2;PMS_P1;PMS_P2;Temp;Humidity;BMP_temperature;BMP_pressure;BME280_temperature;BME280_humidity;BME280_pressure;Samples;Min_cycle;Max_cycle;Signal;HPM_P1;HPM_P2
2022/09/23 00:02:14;;;;;;;1.70;1.60;;;22.90;40.70;;;;;;4996876;28;20282;-64
2022/09/23 00:04:41;;;;;;;1.60;1.50;;;22.90;40.70;;;;;;4995846;28;20338;-64
2022/09/23 00:07:06;;;;;;;1.50;1.40;;;22.90;40.70;;;;;;4993604;28;20219;-62
2022/09/23 00:09:32;;;;;;;1.67;1.57;;;22.90;40.70;;;;;;5003758;28;20495;-61
2022/09/23 00:11:58;;;;;;;1.70;1.60;;;22.90;40.70;;;;;;4995871;28;20243;-67
2022/09/23 00:14:24;;;;;;;1.60;1.50;;;22.90;40.70;;;;;;4990036;28;20226;-60
2022/09/23 00:16:50;;;;;;;1.60;1.50;;;22.90;40.70;;;;;;4976476;28;20831;-63
2022/09/23 00:19:15;;;;;;;1.70;1.60;;;22.90;40.70;;;;;;4988446;28;20228;-61
2022/09/23 00:21:41;;;;;;;1.40;1.30;;;22.90;40.70;;;;;;4986061;28;20231;-61
2022/09/23 00:24:07;;;;;;;1.37;1.27;;;22.90;40.70;;;;;;4994471;28;20215;-61
2022/09/23 00:26:32;;;;;;;1.50;1.40;;;22.90;40.70;;;;;;4989395;28;20219;-58
2022/09/23 00:28:58;;;;;;;1.70;1.60;;;22.90;40.70;;;;;;4990603;28;20757;-61
2022/09/23 00:31:25;;;;;;;1.57;1.47;;;22.90;40.70;;;;;;4996742;28;20700;-62
2022/09/23 00:33:59;;;;;;;1.63;1.53;;;22.90;40.70;;;;;;4984980;28;20314;-63
2022/09/23 00:36:26;;;;;;;1.30;1.20;;;22.90;40.70;;;;;;4986747;28;20457;-63
2022/09/23 00:38:53;;;;;;;1.40;1.30;;;22.90;40.70;;;;;;4995826;28;20469;-59
2022/09/23 00:41:19;;;;;;;1.90;1.80;;;22.90;40.80;;;;;;4998656;28;20509;-64
2022/09/23 00:43:53;;;;;;;1.50;1.40;;;22.90;40.70;;;;;;4992683;28;20959;-62
2022/09/23 00:46:25;;;;;;;1.40;1.30;;;22.90;40.70;;;;;;4982503;28;20952;-59
2022/09/23 00:48:57;;;;;;;1.83;1.73;;;22.90;40.80;;;;;;4986796;28;20446;-61
2022/09/23 00:51:27;;;;;;;1.63;1.53;;;22.90;40.80;;;;;;4978857;28;20481;-60
2022/09/23 00:53:52;;;;;;;1.57;1.47;;;22.90;40.70;;;;;;4987233;28;20489;-60
2022/09/23 00:56:21;;;;;;;1.40;1.30;;;22.90;40.80;;;;;;4991186;28;20481;-60
2022/09/23 00:58:49;;;;;;;1.70;1.60;;;22.90;40.80;;;;;;4989350;28;20211;-63
2022/09/23 01:01:14;;;;;;;1.47;1.37;;;22.90;40.80;;;;;;5010505;28;20805;-62
2022/09/23 01:03:44;;;;;;;1.93;1.50;;;22.90;40.80;;;;;;4987139;28;20991;-61
2022/09/23 01:06:10;;;;;;;1.50;1.40;;;22.90;40.70;;;;;;4995929;28;20220;-59
2022/09/23 01:08:36;;;;;;;2.03;1.93;;;22.90;40.80;;;;;;4990921;28;20442;-61
2022/09/23 01:11:10;;;;;;;1.57;1.47;;;22.90;40.80;;;;;;4992423;28;20505;-61
2022/09/23 01:13:50;;;;;;;1.53;1.43;;;22.90;40.80;;;;;;4977112;28;20254;-63
2022/09/23 01:16:53;;;;;;;1.57;1.40;;;22.90;40.70;;;;;;4992066;28;20477;-64
2022/09/23 01:19:49;;;;;;;1.70;1.60;;;22.90;40.80;;;;;;4983380;28;20585;-61
2022/09/23 01:22:25;;;;;;;2.53;1.67;;;22.90;40.80;;;;;;4995323;28;20463;-65
2022/09/23 01:25:18;;;;;;;1.50;1.40;;;22.90;40.80;;;;;;4990209;28;20447;-59
2022/09/23 01:28:06;;;;;;;1.73;1.63;;;22.90;40.90;;;;;;4990573;28;20455;-61
2022/09/23 01:30:32;;;;;;;1.60;1.50;;;22.90;40.80;;;;;;4965994;28;20493;-59
2022/09/23 01:33:15;;;;;;;1.67;1.40;;;22.90;40.90;;;;;;4991122;28;20537;-59
2022/09/23 01:36:26;;;;;;;1.50;1.40;;;22.90;40.80;;;;;;4989755;28;20231;-59
2022/09/23 01:39:02;;;;;;;1.67;1.57;;;22.90;40.80;;;;;;4970680;28;20550;-59
2022/09/23 01:41:50;;;;;;;1.67;1.57;;;22.90;40.80;;;;;;4983412;28;20467;-62
2022/09/23 01:44:19;;;;;;;1.90;1.80;;;22.90;40.80;;;;;;4985470;28;20510;-61
2022/09/23 01:47:09;;;;;;;1.70;1.60;;;22.90;40.90;;;;;;4982978;28;20447;-67
2022/09/23 01:50:02;;;;;;;1.47;1.37;;;22.90;40.90;;;;;;4990935;28;20461;-66
2022/09/23 01:52:34;;;;;;;1.53;1.43;;;22.90;40.80;;;;;;4990494;28;20544;-62
2022/09/23 01:55:17;;;;;;;1.50;1.40;;;22.90;40.90;;;;;;4999761;28;20453;-59
2022/09/23 01:57:48;;;;;;;1.70;1.60;;;22.90;40.90;;;;;;4990203;28;20507;-61
2022/09/23 02:00:16;;;;;;;1.40;1.30;;;22.90;40.90;;;;;;4997088;28;20980;-60
2022/09/23 02:02:48;;;;;;;1.60;1.50;;;22.90;40.90;;;;;;4989164;28;20445;-60
2022/09/23 02:05:40;;;;;;;1.43;1.33;;;22.90;40.90;;;;;;4988447;28;20448;-60
2022/09/23 02:08:20;;;;;;;1.50;1.40;;;22.90;41.70;;;;;;4997437;28;20481;-70
2022/09/23 02:10:52;;;;;;;1.50;1.40;;;22.90;40.90;;;;;;4985167;28;20474;-59
2022/09/23 02:13:23;;;;;;;1.50;1.40;;;22.90;40.90;;;;;;4985627;28;20824;-64
2022/09/23 02:15:52;;;;;;;1.50;1.40;;;22.90;40.90;;;;;;4986841;28;20466;-60
2022/09/23 02:18:27;;;;;;;1.63;1.53;;;22.90;40.90;;;;;;4977351;28;20454;-64
2022/09/23 02:20:57;;;;;;;1.60;1.50;;;22.90;40.90;;;;;;4986390;28;20457;-59
2022/09/23 02:23:28;;;;;;;1.63;1.53;;;22.90;40.90;;;;;;4982618;28;21202;-63
2022/09/23 02:26:10;;;;;;;1.50;1.40;;;22.90;40.90;;;;;;4983715;28;20870;-59
2022/09/23 02:28:55;;;;;;;1.47;1.37;;;22.90;40.90;;;;;;4980616;28;21086;-59
2022/09/23 02:31:41;;;;;;;1.50;1.40;;;22.90;40.90;;;;;;4988033;28;21041;-61
2022/09/23 02:34:17;;;;;;;1.60;1.50;;;22.90;40.90;;;;;;4987494;28;20452;-60
2022/09/23 02:37:03;;;;;;;1.30;1.20;;;22.90;41.00;;;;;;4992405;28;20453;-70
2022/09/23 02:39:55;;;;;;;1.50;1.40;;;22.90;40.90;;;;;;4977735;28;20517;-59
2022/09/23 02:42:24;;;;;;;1.60;1.50;;;22.90;40.90;;;;;;4993717;28;20797;-62
2022/09/23 02:44:49;;;;;;;1.43;1.33;;;22.90;40.90;;;;;;4990465;28;20457;-64
2022/09/23 02:47:18;;;;;;;1.50;1.40;;;22.90;40.90;;;;;;4986737;28;20446;-66
2022/09/23 02:49:43;;;;;;;1.87;1.77;;;22.90;41.70;;;;;;5019964;28;20644;-64
2022/09/23 02:52:12;;;;;;;1.83;1.60;;;22.80;40.80;;;;;;4977059;28;20448;-59
2022/09/23 02:54:39;;;;;;;1.67;1.57;;;22.90;41.00;;;;;;4980490;28;20223;-61
2022/09/23 02:57:06;;;;;;;1.50;1.40;;;22.90;41.00;;;;;;4992861;28;20481;-61
2022/09/23 02:59:34;;;;;;;1.60;1.50;;;22.90;40.90;;;;;;4986311;28;20829;-60
2022/09/23 03:02:13;;;;;;;1.50;1.40;;;22.90;41.00;;;;;;4985358;28;20450;-62
2022/09/23 03:04:50;;;;;;;1.80;1.70;;;22.90;40.90;;;;;;4982319;28;20468;-59
2022/09/23 03:07:43;;;;;;;1.40;1.30;;;22.90;40.90;;;;;;4996059;28;20461;-65
2022/09/23 03:10:24;;;;;;;1.60;1.50;;;22.90;40.90;;;;;;4979392;28;20459;-69
2022/09/23 03:13:34;;;;;;;1.50;1.40;;;22.90;41.00;;;;;;4979071;28;21036;-59
2022/09/23 03:16:13;;;;;;;1.53;1.43;;;22.90;40.90;;;;;;4983273;28;20513;-66
2022/09/23 03:18:46;;;;;;;1.60;1.50;;;22.80;40.90;;;;;;4984379;28;20445;-59
2022/09/23 03:21:20;;;;;;;1.50;1.40;;;22.80;40.90;;;;;;4969974;28;20490;-62
2022/09/23 03:23:47;;;;;;;1.47;1.37;;;22.90;41.00;;;;;;4981765;28;20473;-62
2022/09/23 03:26:18;;;;;;;1.53;1.43;;;22.90;41.00;;;;;;4988901;28;20522;-64
2022/09/23 03:28:45;;;;;;;1.50;1.40;;;22.80;40.90;;;;;;4994325;28;20956;-59
2022/09/23 03:31:13;;;;;;;1.50;1.40;;;22.90;41.00;;;;;;5015417;28;20925;-66
2022/09/23 03:33:42;;;;;;;1.63;1.53;;;22.80;40.80;;;;;;4992920;28;20428;-65
2022/09/23 03:39:07;;;;;;;1.70;1.60;;;22.90;40.90;;;;;;4989462;28;20476;-59
2022/09/23 03:41:40;;;;;;;1.40;1.30;;;22.90;41.00;;;;;;4983487;28;20464;-61
2022/09/23 03:44:07;;;;;;;1.60;1.50;;;22.90;41.00;;;;;;4994842;28;21105;-59
2022/09/23 03:46:34;;;;;;;1.47;1.37;;;22.90;41.00;;;;;;4983055;28;20528;-67
2022/09/23 03:49:26;;;;;;;1.33;1.23;;;22.90;41.00;;;;;;4989944;28;20456;-60
2022/09/23 03:51:52;;;;;;;1.67;1.57;;;22.90;41.70;;;;;;4980367;28;20486;-60
2022/09/23 03:54:19;;;;;;;1.37;1.27;;;22.90;40.90;;;;;;4990570;28;20461;-61
2022/09/23 03:56:46;;;;;;;1.40;1.30;;;22.90;41.00;;;;;;4985855;28;20480;-61
2022/09/23 03:59:13;;;;;;;1.60;1.50;;;22.90;40.90;;;;;;4987924;28;21058;-64
2022/09/23 04:01:40;;;;;;;1.63;1.53;;;22.90;40.90;;;;;;4989341;28;20454;-62
2022/09/23 04:04:07;;;;;;;1.60;1.50;;;22.90;40.90;;;;;;4989295;28;20457;-64
2022/09/23 04:06:32;;;;;;;1.93;1.47;;;22.90;41.00;;;;;;4997108;28;20449;-59
2022/09/23 04:08:58;;;;;;;1.70;1.60;;;22.90;40.90;;;;;;4988407;28;20514;-61
2022/09/23 04:11:23;;;;;;;1.60;1.50;;;22.80;40.90;;;;;;4990403;28;20224;-70
2022/09/23 04:13:49;;;;;;;1.47;1.37;;;22.80;40.90;;;;;;4995531;28;20219;-61
2022/09/23 04:16:14;;;;;;;1.83;1.50;;;22.90;40.90;;;;;;4989983;28;20558;-63
2022/09/23 04:18:40;;;;;;;1.60;1.50;;;22.90;40.90;;;;;;4994325;28;20312;-63
2022/09/23 04:21:05;;;;;;;1.70;1.30;;;22.90;40.90;;;;;;4981657;28;20239;-62
2022/09/23 04:23:31;;;;;;;1.60;1.50;;;22.90;40.90;;;;;;4984936;28;20220;-61
2022/09/23 04:25:56;;;;;;;1.30;1.20;;;22.90;40.90;;;;;;4985549;28;20212;-65
2022/09/23 04:28:22;;;;;;;1.70;1.60;;;22.90;40.90;;;;;;4991621;28;20336;-70
2022/09/23 04:30:48;;;;;;;1.40;1.30;;;22.90;40.80;;;;;;4986096;28;20232;-62
2022/09/23 04:33:15;;;;;;;1.40;1.30;;;22.90;40.70;;;;;;4993234;28;20347;-60
2022/09/23 04:35:42;;;;;;;1.50;1.40;;;22.90;40.60;;;;;;4996905;28;20758;-59
2022/09/23 04:38:11;;;;;;;1.40;1.30;;;23.00;40.70;;;;;;4986566;28;20469;-61
2022/09/23 04:40:37;;;;;;;1.30;1.20;;;23.00;40.50;;;;;;4979208;28;20481;-64
2022/09/23 04:43:03;;;;;;;1.53;1.43;;;23.00;40.60;;;;;;4985378;28;20944;-59
2022/09/23 04:45:29;;;;;;;1.53;1.43;;;23.00;40.50;;;;;;4975123;28;20246;-59
2022/09/23 04:47:57;;;;;;;1.37;1.27;;;23.00;40.50;;;;;;4991002;28;20237;-60
2022/09/23 04:50:24;;;;;;;1.73;1.63;;;23.00;40.50;;;;;;4991089;28;20512;-62
2022/09/23 04:52:50;;;;;;;1.33;1.23;;;23.00;40.50;;;;;;4985536;28;20431;-59
2022/09/23 04:55:15;;;;;;;1.57;1.40;;;23.00;40.50;;;;;;4990310;28;20458;-65
2022/09/23 04:57:41;;;;;;;1.60;1.50;;;23.00;40.50;;;;;;4989896;28;20309;-70
2022/09/23 05:00:07;;;;;;;1.50;1.40;;;23.00;40.50;;;;;;4980870;28;20235;-61
2022/09/23 05:02:34;;;;;;;1.50;1.40;;;23.00;40.50;;;;;;4988257;28;20234;-59
2022/09/23 05:04:59;;;;;;;1.30;1.20;;;23.00;40.50;;;;;;4982139;28;20458;-61
2022/09/23 05:07:25;;;;;;;1.43;1.33;;;23.00;40.50;;;;;;4995387;28;20461;-61
2022/09/23 05:09:50;;;;;;;1.40;1.30;;;23.00;40.50;;;;;;4992720;28;20231;-66
2022/09/23 05:12:16;;;;;;;1.67;1.57;;;23.00;40.60;;;;;;4999469;28;20227;-61
2022/09/23 05:14:41;;;;;;;1.50;1.40;;;23.00;40.50;;;;;;5025262;28;20597;-60
2022/09/23 05:17:07;;;;;;;1.50;1.40;;;23.00;40.50;;;;;;4976930;28;20302;-64
2022/09/23 05:19:32;;;;;;;1.50;1.40;;;23.00;40.60;;;;;;4972458;28;20238;-60
2022/09/23 05:21:58;;;;;;;2.03;1.67;;;23.00;40.50;;;;;;4990626;28;20290;-58
2022/09/23 05:24:24;;;;;;;1.40;1.30;;;23.00;40.50;;;;;;4981394;28;20768;-61
2022/09/23 05:26:50;;;;;;;1.30;1.20;;;23.00;40.50;;;;;;4980858;28;20261;-64
2022/09/23 05:29:16;;;;;;;1.30;1.20;;;23.00;40.50;;;;;;4984706;28;20231;-62
2022/09/23 05:31:41;;;;;;;1.30;1.20;;;23.00;40.50;;;;;;4977219;28;21811;-67
2022/09/23 05:34:07;;;;;;;1.70;1.60;;;23.00;40.50;;;;;;4988188;28;20686;-59
2022/09/23 05:36:34;;;;;;;1.60;1.50;;;23.00;40.50;;;;;;4981625;28;20370;-59
2022/09/23 05:39:01;;;;;;;1.60;1.50;;;23.00;40.50;;;;;;5018827;28;20232;-63
2022/09/23 05:41:26;;;;;;;1.50;1.40;;;23.00;40.50;;;;;;4993933;28;20464;-71
2022/09/23 05:43:53;;;;;;;1.40;1.30;;;23.00;40.40;;;;;;4994519;28;20971;-60
2022/09/23 05:46:22;;;;;;;1.40;1.30;;;23.00;40.50;;;;;;4993934;28;20713;-63
2022/09/23 05:48:48;;;;;;;3.03;1.50;;;23.00;40.50;;;;;;4985170;28;20511;-60
2022/09/23 05:51:16;;;;;;;1.60;1.50;;;23.00;40.40;;;;;;4995750;28;20449;-59
2022/09/23 05:53:45;;;;;;;1.40;1.30;;;23.00;40.40;;;;;;4991879;28;20836;-61
2022/09/23 05:56:12;;;;;;;1.33;1.23;;;23.00;40.40;;;;;;4991504;28;20450;-59
2022/09/23 05:58:38;;;;;;;3.10;1.60;;;23.00;40.40;;;;;;4994516;28;20830;-59
2022/09/23 06:01:16;;;;;;;1.47;1.37;;;23.00;40.40;;;;;;4990708;28;20450;-59
2022/09/23 06:03:46;;;;;;;1.50;1.40;;;23.00;40.40;;;;;;4997956;28;20448;-63
2022/09/23 06:06:16;;;;;;;1.20;1.10;;;23.00;40.40;;;;;;4985606;28;20445;-61
2022/09/23 06:08:42;;;;;;;1.50;1.40;;;23.00;40.40;;;;;;4991137;28;20456;-66
2022/09/23 06:11:09;;;;;;;1.60;1.50;;;23.00;40.40;;;;;;4983359;28;20461;-60
2022/09/23 06:13:38;;;;;;;1.40;1.30;;;23.00;40.40;;;;;;4981745;28;20479;-61
2022/09/23 06:16:12;;;;;;;1.50;1.40;;;23.00;40.40;;;;;;4977684;28;20457;-62
2022/09/23 06:18:39;;;;;;;1.30;1.20;;;23.00;40.40;;;;;;4999062;28;20476;-59
2022/09/23 06:21:05;;;;;;;1.30;1.20;;;23.00;40.40;;;;;;4990038;28;20940;-64
2022/09/23 06:23:31;;;;;;;1.60;1.50;;;23.00;40.50;;;;;;4996461;28;20548;-58
2022/09/23 06:26:01;;;;;;;3.63;1.50;;;23.00;40.40;;;;;;4988637;28;20601;-60
2022/09/23 06:28:31;;;;;;;1.60;1.50;;;23.00;40.40;;;;;;4987864;28;20236;-61
2022/09/23 06:30:58;;;;;;;1.67;1.57;;;23.00;40.40;;;;;;4988644;28;20869;-60
2022/09/23 06:33:24;;;;;;;1.40;1.30;;;23.00;40.40;;;;;;4994314;28;20467;-59
2022/09/23 06:35:54;;;;;;;3.43;1.30;;;23.00;40.40;;;;;;4982936;28;20464;-60
2022/09/23 06:38:20;;;;;;;1.43;1.33;;;23.00;40.40;;;;;;4990235;28;20538;-61
2022/09/23 06:40:53;;;;;;;1.37;1.27;;;23.00;40.30;;;;;;4999224;28;20545;-60
2022/09/23 06:43:20;;;;;;;1.73;1.20;;;23.00;40.30;;;;;;4987899;28;20307;-60
2022/09/23 06:45:45;;;;;;;1.60;1.40;;;23.00;40.40;;;;;;5296052;22;20841;-67
2022/09/23 06:48:11;;;;;;;1.50;1.40;;;23.00;40.40;;;;;;5275512;22;20466;-71
2022/09/23 06:50:36;;;;;;;10.77;2.00;;;23.00;40.40;;;;;;5005192;28;20302;-70
2022/09/23 06:53:03;;;;;;;1.60;1.50;;;23.00;40.40;;;;;;5025258;28;20226;-71
2022/09/23 06:55:28;;;;;;;1.43;1.33;;;23.00;40.40;;;;;;5022354;28;20632;-71
2022/09/23 06:57:56;;;;;;;3.20;1.43;;;23.00;40.40;;;;;;5022518;28;20458;-72
2022/09/23 07:00:23;;;;;;;5.87;1.90;;;23.00;40.30;;;;;;5024670;28;20234;-72
2022/09/23 07:02:48;;;;;;;1.73;1.63;;;23.00;40.30;;;;;;5026235;28;20440;-72
2022/09/23 07:05:16;;;;;;;5.13;2.23;;;23.00;40.30;;;;;;5025345;28;20985;-72
2022/09/23 07:07:42;;;;;;;2.53;1.63;;;23.00;40.20;;;;;;5038468;28;20222;-72
2022/09/23 07:10:08;;;;;;;2.07;1.70;;;23.00;40.10;;;;;;5024969;28;20452;-72
2022/09/23 07:12:34;;;;;;;6.30;1.80;;;23.10;40.10;;;;;;5022008;28;20518;-71
2022/09/23 07:15:00;;;;;;;1.70;1.50;;;23.10;40.00;;;;;;4989799;28;20985;-72
2022/09/23 07:17:26;;;;;;;4.17;1.60;;;23.10;40.00;;;;;;5011787;28;20302;-72
2022/09/23 07:19:53;;;;;;;2.07;1.87;;;23.10;39.90;;;;;;5036175;28;20257;-71
2022/09/23 07:22:20;;;;;;;1.63;1.53;;;23.10;39.90;;;;;;5005281;28;20214;-72
2022/09/23 07:24:45;;;;;;;1.70;1.60;;;23.10;39.90;;;;;;5022666;28;20488;-71
2022/09/23 07:27:16;;;;;;;1.80;1.70;;;23.10;39.80;;;;;;5009464;28;20499;-71
2022/09/23 07:29:44;;;;;;;2.37;1.77;;;23.10;39.70;;;;;;5024885;28;20222;-72
2022/09/23 07:32:11;;;;;;;1.93;1.83;;;23.10;39.70;;;;;;5007664;28;20516;-71
2022/09/23 07:34:37;;;;;;;1.90;1.80;;;23.10;39.70;;;;;;5024990;28;20515;-71
2022/09/23 07:37:03;;;;;;;2.00;1.90;;;23.10;39.70;;;;;;5036300;28;20823;-72
2022/09/23 07:39:31;;;;;;;1.60;1.50;;;23.10;39.70;;;;;;5014897;28;20222;-74
2022/09/23 07:41:58;;;;;;;1.70;1.60;;;23.10;39.70;;;;;;5019995;28;20253;-72
2022/09/23 07:44:24;;;;;;;1.90;1.67;;;23.10;39.60;;;;;;5020574;28;20928;-72
2022/09/23 07:46:49;;;;;;;2.23;1.73;;;23.10;39.60;;;;;;5041226;28;20966;-71
2022/09/23 07:49:15;;;;;;;1.83;1.50;;;23.10;39.70;;;;;;5012931;28;20304;-72
2022/09/23 07:51:45;;;;;;;2.30;1.70;;;23.10;39.60;;;;;;5027234;28;20297;-72
2022/09/23 07:54:12;;;;;;;1.70;1.60;;;23.10;39.60;;;;;;5025634;28;20223;-72
2022/09/23 07:56:39;;;;;;;1.70;1.60;;;23.10;39.60;;;;;;5014589;28;20510;-68
2022/09/23 07:59:07;;;;;;;1.80;1.70;;;23.10;39.60;;;;;;5023409;28;20991;-69
2022/09/23 08:01:39;;;;;;;1.93;1.83;;;23.10;39.60;;;;;;5019581;28;20885;-69
2022/09/23 08:04:29;;;;;;;1.60;1.50;;;23.10;40.30;;;;;;5025193;28;20478;-72
2022/09/23 08:06:58;;;;;;;1.80;1.70;;;23.10;39.60;;;;;;5021899;28;20463;-69
2022/09/23 08:09:28;;;;;;;1.60;1.50;;;23.10;39.60;;;;;;5026071;28;20864;-69
2022/09/23 08:11:54;;;;;;;1.90;1.80;;;23.10;39.50;;;;;;5022858;28;20456;-69
2022/09/23 08:14:21;;;;;;;1.73;1.63;;;23.20;39.60;;;;;;5020524;28;20473;-68
2022/09/23 08:16:47;;;;;;;2.70;1.70;;;23.20;39.60;;;;;;5023149;28;20444;-69
2022/09/23 08:19:14;;;;;;;1.57;1.47;;;23.20;39.60;;;;;;5024491;28;20962;-68
2022/09/23 08:21:40;;;;;;;1.80;1.70;;;23.20;39.50;;;;;;5021696;28;20449;-68
2022/09/23 08:24:07;;;;;;;1.70;1.60;;;23.20;39.60;;;;;;5020011;28;20448;-68
2022/09/23 08:26:33;;;;;;;1.40;1.30;;;23.20;39.50;;;;;;5021560;28;20456;-68
2022/09/23 08:29:00;;;;;;;2.90;1.80;;;23.20;39.50;;;;;;5022993;28;20455;-69
2022/09/23 08:31:25;;;;;;;2.03;1.67;;;23.20;39.50;;;;;;5020970;28;20223;-69
2022/09/23 08:33:55;;;;;;;1.87;1.50;;;23.20;39.50;;;;;;5023008;28;20450;-69
2022/09/23 08:36:20;;;;;;;2.40;1.40;;;23.20;39.50;;;;;;5021298;28;20313;-69
2022/09/23 08:38:46;;;;;;;1.70;1.60;;;23.20;39.50;;;;;;5005096;28;20516;-69
2022/09/23 08:41:18;;;;;;;1.40;1.30;;;23.20;39.60;;;;;;5023703;28;20582;-68
2022/09/23 08:43:55;;;;;;;1.50;1.40;;;23.20;39.50;;;;;;5023393;28;20226;-69
2022/09/23 08:46:39;;;;;;;1.60;1.50;;;23.20;39.50;;;;;;5026682;28;20452;-69
2022/09/23 08:49:07;;;;;;;1.57;1.47;;;23.20;39.60;;;;;;5022808;28;20867;-69
2022/09/23 08:51:39;;;;;;;1.60;1.50;;;23.20;39.60;;;;;;5026107;28;20456;-69
2022/09/23 08:54:09;;;;;;;2.67;1.67;;;23.20;39.60;;;;;;5028680;28;20534;-70
2022/09/23 08:56:36;;;;;;;1.63;1.40;;;23.20;40.40;;;;;;5025459;28;20908;-70
2022/09/23 08:59:13;;;;;;;2.33;1.53;;;23.20;39.60;;;;;;5022010;28;20460;-70
2022/09/23 09:01:44;;;;;;;3.10;1.80;;;23.20;39.60;;;;;;5024331;28;20477;-69
2022/09/23 09:04:37;;;;;;;1.50;1.40;;;23.20;39.60;;;;;;5019089;28;20937;-69
2022/09/23 09:07:12;;;;;;;1.67;1.57;;;23.20;39.60;;;;;;5021251;28;21143;-69
2022/09/23 09:10:03;;;;;;;1.70;1.60;;;23.20;39.60;;;;;;5021777;28;20452;-69
2022/09/23 09:12:51;;;;;;;1.50;1.40;;;23.10;39.50;;;;;;5016876;28;20468;-70
2022/09/23 09:15:22;;;;;;;1.80;1.70;;;23.10;39.60;;;;;;5009544;28;20452;-71
2022/09/23 09:17:58;;;;;;;1.70;1.60;;;23.10;39.60;;;;;;5020935;28;20436;-70
2022/09/23 09:20:39;;;;;;;1.70;1.60;;;23.10;39.60;;;;;;5019080;28;20475;-70
2022/09/23 09:23:44;;;;;;;1.47;1.30;;;23.10;39.60;;;;;;5022698;28;21462;-70
2022/09/23 09:26:33;;;;;;;1.57;1.47;;;23.10;39.60;;;;;;5018621;28;21075;-70
2022/09/23 09:29:12;;;;;;;1.87;1.73;;;23.10;39.60;;;;;;5019385;28;20484;-70
2022/09/23 09:31:41;;;;;;;1.83;1.50;;;23.10;39.60;;;;;;5022019;28;20543;-70
2022/09/23 09:34:35;;;;;;;1.63;1.30;;;23.10;39.50;;;;;;5021632;28;20455;-70
2022/09/23 09:37:14;;;;;;;1.83;1.73;;;23.10;39.50;;;;;;5021282;28;20436;-70
2022/09/23 09:39:40;;;;;;;1.87;1.77;;;23.10;39.60;;;;;;5024672;28;20828;-70
2022/09/23 09:42:06;;;;;;;1.50;1.40;;;23.10;39.60;;;;;;5022128;28;20464;-70
2022/09/23 09:44:39;;;;;;;1.70;1.60;;;23.10;39.50;;;;;;5004200;28;20285;-70
2022/09/23 09:47:27;;;;;;;1.57;1.47;;;23.10;39.60;;;;;;5026382;28;20455;-70
2022/09/23 09:50:31;;;;;;;1.80;1.70;;;23.10;39.60;;;;;;5023405;28;20464;-70
2022/09/23 09:53:15;;;;;;;1.87;1.60;;;23.10;39.60;;;;;;5024760;28;20467;-70
2022/09/23 09:55:41;;;;;;;1.87;1.77;;;23.10;39.50;;;;;;5015428;28;20461;-69
2022/09/23 09:58:15;;;;;;;12.43;1.87;;;23.10;39.50;;;;;;5024304;28;20455;-69
2022/09/23 10:00:43;;;;;;;4.90;1.57;;;23.10;39.50;;;;;;5013224;28;20543;-69
2022/09/23 10:03:12;;;;;;;1.70;1.60;;;23.00;39.40;;;;;;5023977;28;20455;-70
2022/09/23 10:05:46;;;;;;;1.73;1.63;;;23.10;39.60;;;;;;5040520;28;20462;-70
2022/09/23 10:08:17;;;;;;;2.30;1.63;;;23.10;39.50;;;;;;5021582;28;20467;-70
2022/09/23 10:10:59;;;;;;;1.70;1.60;;;23.00;39.50;;;;;;5022753;28;20480;-70
2022/09/23 10:13:29;;;;;;;1.80;1.70;;;23.10;39.60;;;;;;5024366;28;20490;-70
2022/09/23 10:15:55;;;;;;;1.60;1.50;;;23.00;39.50;;;;;;5023481;28;20456;-70
2022/09/23 10:18:35;;;;;;;1.77;1.40;;;23.10;39.60;;;;;;5023277;28;20474;-70
2022/09/23 10:21:12;;;;;;;2.87;1.60;;;23.10;39.60;;;;;;5021652;28;20464;-69
2022/09/23 10:23:41;;;;;;;1.90;1.80;;;23.00;39.50;;;;;;5022714;28;20486;-69
2022/09/23 10:26:07;;;;;;;1.97;1.87;;;23.00;39.50;;;;;;5036976;28;20567;-70
2022/09/23 10:28:49;;;;;;;2.00;1.90;;;23.00;39.60;;;;;;5005901;28;20539;-70
2022/09/23 10:31:47;;;;;;;1.80;1.70;;;23.00;39.60;;;;;;5018515;28;20919;-69
2022/09/23 10:34:27;;;;;;;1.60;1.50;;;23.00;39.50;;;;;;4968574;28;20452;-70
2022/09/23 10:37:22;;;;;;;1.77;1.67;;;23.00;39.60;;;;;;5022320;28;20452;-70
2022/09/23 10:48:40;;;;;;;1.77;1.67;;;23.00;39.70;;;;;;5018986;28;20476;-69
2022/09/23 10:51:46;;;;;;;1.70;1.60;;;23.00;39.70;;;;;;5019642;28;20468;-70
2022/09/23 10:54:44;;;;;;;1.70;1.60;;;23.00;39.70;;;;;;5024869;28;20456;-69
2022/09/23 10:57:42;;;;;;;1.70;1.53;;;23.00;39.70;;;;;;5022235;28;20491;-70
2022/09/23 11:00:13;;;;;;;1.90;1.80;;;23.00;39.70;;;;;;5021399;28;20459;-69
2022/09/23 11:02:51;;;;;;;1.83;1.73;;;23.00;39.70;;;;;;5017264;28;20871;-68
2022/09/23 11:05:41;;;;;;;1.63;1.53;;;23.00;39.70;;;;;;5020514;28;20987;-70
2022/09/23 11:08:44;;;;;;;1.73;1.63;;;23.00;39.70;;;;;;5017898;28;20815;-70
2022/09/23 11:11:45;;;;;;;2.47;2.27;;;23.00;39.80;;;;;;5020904;28;20468;-69
2022/09/23 11:14:17;;;;;;;1.83;1.50;;;23.00;39.70;;;;;;5020095;28;20553;-70
2022/09/23 11:17:04;;;;;;;2.50;2.40;;;23.00;39.80;;;;;;5023236;28;21217;-69
2022/09/23 11:19:56;;;;;;;1.70;1.60;;;23.00;39.80;;;;;;5015196;28;20471;-69
2022/09/23 11:23:06;;;;;;;1.80;1.70;;;23.00;39.70;;;;;;4993987;28;20500;-70
2022/09/23 11:26:13;;;;;;;2.30;2.10;;;23.00;39.80;;;;;;5016066;28;20866;-70
2022/09/23 11:28:53;;;;;;;1.90;1.80;;;23.00;40.60;;;;;;5006674;28;20456;-69
2022/09/23 11:31:46;;;;;;;1.53;1.43;;;23.00;39.80;;;;;;5031307;28;20985;-70
2022/09/23 11:34:11;;;;;;;1.80;1.70;;;23.00;39.80;;;;;;5014224;28;21211;-70
2022/09/23 11:36:43;;;;;;;1.80;1.70;;;23.00;39.80;;;;;;5018565;28;20448;-69
2022/09/23 11:39:16;;;;;;;2.03;1.93;;;23.00;39.80;;;;;;5020640;28;20222;-69
2022/09/23 11:41:43;;;;;;;1.70;1.60;;;23.00;39.80;;;;;;5021752;28;20492;-69
2022/09/23 11:44:21;;;;;;;1.80;1.70;;;23.00;39.80;;;;;;5024397;28;20808;-70
2022/09/23 11:46:58;;;;;;;1.83;1.73;;;23.00;39.80;;;;;;5019644;28;20974;-70
2022/09/23 11:49:34;;;;;;;1.80;1.70;;;23.00;39.80;;;;;;5020883;28;21003;-70
2022/09/23 11:52:34;;;;;;;1.60;1.50;;;23.00;39.90;;;;;;5023065;28;20964;-70
2022/09/23 11:55:15;;;;;;;2.00;1.90;;;23.00;39.80;;;;;;5022675;28;20439;-69
2022/09/23 11:58:02;;;;;;;2.00;1.90;;;23.00;39.80;;;;;;5021135;28;20456;-69
2022/09/23 12:00:33;;;;;;;2.13;1.90;;;23.00;39.80;;;;;;5009413;28;20472;-70
2022/09/23 12:03:17;;;;;;;5.27;1.80;;;23.00;40.00;;;;;;5018256;28;20455;-70
2022/09/23 12:05:50;;;;;;;1.80;1.70;;;23.00;39.90;;;;;;5018736;28;20460;-70
2022/09/23 12:08:31;;;;;;;1.73;1.60;;;23.00;39.90;;;;;;5015561;28;21038;-70
2022/09/23 12:11:18;;;;;;;1.70;1.60;;;23.00;39.90;;;;;;5017458;28;20464;-70
2022/09/23 12:14:28;;;;;;;1.83;1.70;;;23.00;39.80;;;;;;5016942;28;20900;-70
2022/09/23 12:17:16;;;;;;;1.60;1.50;;;23.10;40.00;;;;;;5006871;28;21843;-71
2022/09/23 12:20:08;;;;;;;1.63;1.53;;;23.00;40.00;;;;;;5010305;28;21313;-71
2022/09/23 12:23:06;;;;;;;1.80;1.70;;;23.00;40.00;;;;;;5001314;28;20463;-70
2022/09/23 12:25:59;;;;;;;1.70;1.60;;;23.00;40.00;;;;;;5011047;28;20475;-76
2022/09/23 12:28:32;;;;;;;1.80;1.70;;;23.00;40.00;;;;;;4983998;28;20463;-74
2022/09/23 12:31:00;;;;;;;1.80;1.70;;;23.00;40.00;;;;;;5000172;28;20460;-75
2022/09/23 12:33:31;;;;;;;2.23;1.97;;;23.00;40.00;;;;;;4991170;28;20997;-75
2022/09/23 12:36:04;;;;;;;1.97;1.87;;;23.00;40.00;;;;;;5029641;28;20464;-75
2022/09/23 12:38:34;;;;;;;1.80;1.70;;;23.00;40.00;;;;;;5030115;28;20463;-75
2022/09/23 12:41:07;;;;;;;1.70;1.60;;;23.00;40.00;;;;;;5009672;28;20483;-75
2022/09/23 12:43:34;;;;;;;1.50;1.40;;;23.00;40.00;;;;;;5022743;28;20989;-76
2022/09/23 12:46:24;;;;;;;2.30;2.10;;;23.00;40.10;;;;;;5010579;28;20495;-75
2022/09/23 12:48:55;;;;;;;1.67;1.57;;;23.00;40.10;;;;;;5020198;28;20461;-76
2022/09/23 12:51:22;;;;;;;2.10;1.60;;;23.00;40.10;;;;;;5016097;28;23460;-75
2022/09/23 12:53:51;;;;;;;1.80;1.70;;;23.00;40.00;;;;;;5014052;28;20496;-76
2022/09/23 12:56:42;;;;;;;1.63;1.53;;;23.00;40.10;;;;;;5011677;28;21312;-75
2022/09/23 12:59:21;;;;;;;1.87;1.77;;;23.00;40.00;;;;;;5003540;28;20475;-75
2022/09/23 13:01:47;;;;;;;1.70;1.60;;;23.00;40.10;;;;;;5002849;28;21002;-75
2022/09/23 13:07:28;;;;;;;1.80;1.70;;;23.00;40.10;;;;;;5018889;28;20221;-75
2022/09/23 13:10:26;;;;;;;1.80;1.70;;;23.00;40.10;;;;;;5032558;28;20509;-75
2022/09/23 13:12:54;;;;;;;1.60;1.50;;;23.00;40.10;;;;;;5013023;28;20522;-75
2022/09/23 13:15:32;;;;;;;2.43;1.30;;;23.00;40.10;;;;;;5016178;28;20464;-75
2022/09/23 13:18:17;;;;;;;1.73;1.63;;;23.00;40.10;;;;;;5016058;28;20452;-75
2022/09/23 13:20:43;;;;;;;1.70;1.60;;;23.00;40.10;;;;;;5010274;28;20514;-75
2022/09/23 13:23:21;;;;;;;2.70;1.70;;;22.90;40.10;;;;;;5014869;28;20490;-75
2022/09/23 13:25:50;;;;;;;1.53;1.30;;;23.00;40.10;;;;;;5014278;28;20455;-77
2022/09/23 13:28:42;;;;;;;1.63;1.53;;;22.90;40.00;;;;;;5019208;28;21025;-76
2022/09/23 13:31:14;;;;;;;1.67;1.40;;;22.90;40.10;;;;;;5029313;28;21248;-72
2022/09/23 13:33:49;;;;;;;1.50;1.40;;;22.90;40.10;;;;;;5016214;28;20455;-73
2022/09/23 13:36:18;;;;;;;1.87;1.53;;;22.90;40.10;;;;;;5013201;28;20462;-74